sensor_id;sensor_type;location;lat;lon;timestamp;P1;durP1;ratioP1;P2;durP2;ratioP2
8982;SDS011;20979;59.850;10.660;2022-07-29T00:07:23;1.93;;;0.73;;
8982;SDS011;20979;59.850;10.660;2022-07-29T00:10:23;0.60;;;0.60;;
8982;SDS011;20979;59.850;10.660;2022-07-29T00:12:52;1.07;;;0.60;;
8982;SDS011;20979;59.850;10.660;2022-07-29T00:15:19;1.07;;;0.73;;
8982;SDS011;20979;59.850;10.660;2022-07-29T00:17:46;1.23;;;0.73;;
8982;SDS011;20979;59.850;10.660;2022-07-29T00:20:14;0.80;;;0.70;;
8982;SDS011;20979;59.850;10.660;2022-07-29T00:22:59;1.13;;;0.83;;
8982;SDS011;20979;59.850;10.660;2022-07-29T00:29:03;2.07;;;1.10;;
8982;SDS011;20979;59.850;10.660;2022-07-29T00:31:33;1.53;;;1.10;;
8982;SDS011;20979;59.850;10.660;2022-07-29T01:01:53;1.63;;;0.77;;
8982;SDS011;20979;59.850;10.660;2022-07-29T01:04:23;1.83;;;0.90;;
8982;SDS011;20979;59.850;10.660;2022-07-29T01:07:09;1.33;;;0.83;;
8982;SDS011;20979;59.850;10.660;2022-07-29T01:09:37;2.40;;;1.10;;
8982;SDS011;20979;59.850;10.660;2022-07-29T01:12:05;2.50;;;1.20;;
8982;SDS011;20979;59.850;10.660;2022-07-29T01:14:54;1.50;;;0.80;;
8982;SDS011;20979;59.850;10.660;2022-07-29T01:17:25;1.10;;;0.73;;
8982;SDS011;20979;59.850;10.660;2022-07-29T01:19:56;2.30;;;1.20;;
8982;SDS011;20979;59.850;10.660;2022-07-29T01:22:26;0.87;;;0.87;;
8982;SDS011;20979;59.850;10.660;2022-07-29T01:31:08;1.97;;;0.80;;
8982;SDS011;20979;59.850;10.660;2022-07-29T01:33:38;0.70;;;0.70;;
8982;SDS011;20979;59.850;10.660;2022-07-29T01:36:33;1.10;;;1.00;;
8982;SDS011;20979;59.850;10.660;2022-07-29T01:48:53;1.10;;;1.00;;
8982;SDS011;20979;59.850;10.660;2022-07-29T01:51:25;1.37;;;1.00;;
8982;SDS011;20979;59.850;10.660;2022-07-29T01:57:05;1.20;;;0.87;;
8982;SDS011;20979;59.850;10.660;2022-07-29T01:59:34;2.13;;;1.00;;
8982;SDS011;20979;59.850;10.660;2022-07-29T02:02:02;2.10;;;0.87;;
8982;SDS011;20979;59.850;10.660;2022-07-29T02:04:32;2.60;;;1.00;;
8982;SDS011;20979;59.850;10.660;2022-07-29T02:10:14;1.30;;;0.93;;
8982;SDS011;20979;59.850;10.660;2022-07-29T02:12:42;1.53;;;1.10;;
8982;SDS011;20979;59.850;10.660;2022-07-29T02:15:24;2.33;;;1.13;;
8982;SDS011;20979;59.850;10.660;2022-07-29T02:17:53;1.47;;;1.03;;
8982;SDS011;20979;59.850;10.660;2022-07-29T02:26:47;1.13;;;0.90;;
8982;SDS011;20979;59.850;10.660;2022-07-29T02:29:15;1.57;;;1.20;;
8982;SDS011;20979;59.850;10.660;2022-07-29T02:32:02;1.37;;;1.00;;
8982;SDS011;20979;59.850;10.660;2022-07-29T02:34:30;1.43;;;0.90;;
8982;SDS011;20979;59.850;10.660;2022-07-29T02:36:59;1.70;;;1.10;;
8982;SDS011;20979;59.850;10.660;2022-07-29T02:39:59;1.67;;;0.93;;
8982;SDS011;20979;59.850;10.660;2022-07-29T02:50:54;1.63;;;1.00;;
8982;SDS011;20979;59.850;10.660;2022-07-29T02:53:44;2.67;;;1.00;;
8982;SDS011;20979;59.850;10.660;2022-07-29T02:56:26;1.50;;;1.00;;
8982;SDS011;20979;59.850;10.660;2022-07-29T02:58:55;1.77;;;0.93;;
8982;SDS011;20979;59.850;10.660;2022-07-29T03:01:24;1.30;;;1.00;;
8982;SDS011;20979;59.850;10.660;2022-07-29T03:03:54;2.03;;;0.97;;
8982;SDS011;20979;59.850;10.660;2022-07-29T03:06:24;1.20;;;1.10;;
8982;SDS011;20979;59.850;10.660;2022-07-29T03:08:52;1.47;;;1.10;;
8982;SDS011;20979;59.850;10.660;2022-07-29T03:11:21;1.17;;;0.90;;
8982;SDS011;20979;59.850;10.660;2022-07-29T03:13:49;1.80;;;1.10;;
8982;SDS011;20979;59.850;10.660;2022-07-29T03:16:17;0.93;;;0.90;;
8982;SDS011;20979;59.850;10.660;2022-07-29T03:25:19;1.20;;;0.90;;
8982;SDS011;20979;59.850;10.660;2022-07-29T03:30:54;2.03;;;0.90;;
8982;SDS011;20979;59.850;10.660;2022-07-29T03:33:21;1.17;;;1.10;;
8982;SDS011;20979;59.850;10.660;2022-07-29T03:35:53;1.20;;;1.10;;
8982;SDS011;20979;59.850;10.660;2022-07-29T03:53:28;1.47;;;1.00;;
8982;SDS011;20979;59.850;10.660;2022-07-29T03:55:59;1.13;;;1.03;;
8982;SDS011;20979;59.850;10.660;2022-07-29T03:58:46;1.27;;;1.10;;
8982;SDS011;20979;59.850;10.660;2022-07-29T04:01:14;2.13;;;1.30;;
8982;SDS011;20979;59.850;10.660;2022-07-29T04:03:45;0.80;;;0.80;;
8982;SDS011;20979;59.850;10.660;2022-07-29T04:06:14;2.07;;;0.90;;
8982;SDS011;20979;59.850;10.660;2022-07-29T04:08:44;1.27;;;1.17;;
8982;SDS011;20979;59.850;10.660;2022-07-29T04:14:19;1.53;;;0.97;;
8982;SDS011;20979;59.850;10.660;2022-07-29T04:23:14;1.50;;;1.00;;
8982;SDS011;20979;59.850;10.660;2022-07-29T04:28:49;2.30;;;1.17;;
8982;SDS011;20979;59.850;10.660;2022-07-29T04:31:19;1.47;;;1.10;;
8982;SDS011;20979;59.850;10.660;2022-07-29T04:33:47;1.37;;;1.03;;
8982;SDS011;20979;59.850;10.660;2022-07-29T04:36:14;1.23;;;1.13;;
8982;SDS011;20979;59.850;10.660;2022-07-29T04:38:45;2.77;;;1.53;;
8982;SDS011;20979;59.850;10.660;2022-07-29T04:41:31;1.27;;;1.10;;
8982;SDS011;20979;59.850;10.660;2022-07-29T04:44:02;1.77;;;1.30;;
8982;SDS011;20979;59.850;10.660;2022-07-29T04:46:32;2.20;;;1.30;;
8982;SDS011;20979;59.850;10.660;2022-07-29T04:49:00;1.73;;;1.23;;
8982;SDS011;20979;59.850;10.660;2022-07-29T04:54:21;1.60;;;1.10;;
8982;SDS011;20979;59.850;10.660;2022-07-29T04:57:06;2.97;;;1.50;;
8982;SDS011;20979;59.850;10.660;2022-07-29T04:59:35;1.83;;;1.20;;
8982;SDS011;20979;59.850;10.660;2022-07-29T05:02:28;1.67;;;1.13;;
8982;SDS011;20979;59.850;10.660;2022-07-29T05:04:55;2.30;;;1.37;;
8982;SDS011;20979;59.850;10.660;2022-07-29T05:07:31;1.50;;;1.23;;
8982;SDS011;20979;59.850;10.660;2022-07-29T05:09:59;2.27;;;1.60;;
8982;SDS011;20979;59.850;10.660;2022-07-29T05:12:26;3.73;;;1.50;;
8982;SDS011;20979;59.850;10.660;2022-07-29T05:15:12;2.23;;;1.30;;
8982;SDS011;20979;59.850;10.660;2022-07-29T05:18:05;3.70;;;1.40;;
8982;SDS011;20979;59.850;10.660;2022-07-29T05:20:33;3.27;;;1.60;;
8982;SDS011;20979;59.850;10.660;2022-07-29T05:23:03;2.10;;;1.43;;
8982;SDS011;20979;59.850;10.660;2022-07-29T05:25:30;1.53;;;1.10;;
8982;SDS011;20979;59.850;10.660;2022-07-29T05:27:58;2.67;;;1.60;;
8982;SDS011;20979;59.850;10.660;2022-07-29T05:30:40;4.30;;;1.40;;
8982;SDS011;20979;59.850;10.660;2022-07-29T05:38:58;3.07;;;1.57;;
8982;SDS011;20979;59.850;10.660;2022-07-29T05:41:43;2.93;;;1.57;;
8982;SDS011;20979;59.850;10.660;2022-07-29T05:44:39;2.97;;;1.43;;
8982;SDS011;20979;59.850;10.660;2022-07-29T05:50:11;2.63;;;1.60;;
8982;SDS011;20979;59.850;10.660;2022-07-29T05:53:12;3.40;;;1.70;;
8982;SDS011;20979;59.850;10.660;2022-07-29T05:55:39;2.23;;;1.50;;
8982;SDS011;20979;59.850;10.660;2022-07-29T05:58:10;2.60;;;1.70;;
8982;SDS011;20979;59.850;10.660;2022-07-29T06:01:00;3.07;;;1.70;;
8982;SDS011;20979;59.850;10.660;2022-07-29T06:03:31;4.03;;;2.03;;
8982;SDS011;20979;59.850;10.660;2022-07-29T06:06:08;6.27;;;2.10;;
8982;SDS011;20979;59.850;10.660;2022-07-29T06:08:36;3.50;;;2.10;;
8982;SDS011;20979;59.850;10.660;2022-07-29T06:11:04;4.63;;;1.83;;
8982;SDS011;20979;59.850;10.660;2022-07-29T06:25:36;3.73;;;1.90;;
8982;SDS011;20979;59.850;10.660;2022-07-29T06:28:42;3.15;;;1.80;;
8982;SDS011;20979;59.850;10.660;2022-07-29T06:31:15;5.10;;;1.77;;
8982;SDS011;20979;59.850;10.660;2022-07-29T06:48:51;2.03;;;1.50;;
8982;SDS011;20979;59.850;10.660;2022-07-29T06:51:36;2.00;;;1.30;;
8982;SDS011;20979;59.850;10.660;2022-07-29T06:54:04;2.00;;;1.52;;
8982;SDS011;20979;59.850;10.660;2022-07-29T06:56:31;3.35;;;1.42;;
8982;SDS011;20979;59.850;10.660;2022-07-29T06:59:09;2.30;;;1.35;;
8982;SDS011;20979;59.850;10.660;2022-07-29T07:01:46;4.55;;;1.52;;
8982;SDS011;20979;59.850;10.660;2022-07-29T07:04:15;3.08;;;1.48;;
8982;SDS011;20979;59.850;10.660;2022-07-29T07:06:42;2.08;;;1.40;;
8982;SDS011;20979;59.850;10.660;2022-07-29T07:09:11;2.40;;;1.35;;
8982;SDS011;20979;59.850;10.660;2022-07-29T07:11:38;3.22;;;1.65;;
8982;SDS011;20979;59.850;10.660;2022-07-29T07:14:13;2.33;;;1.52;;
8982;SDS011;20979;59.850;10.660;2022-07-29T07:22:59;3.42;;;1.60;;
8982;SDS011;20979;59.850;10.660;2022-07-29T07:25:26;2.47;;;1.38;;
8982;SDS011;20979;59.850;10.660;2022-07-29T07:27:54;1.70;;;1.60;;
8982;SDS011;20979;59.850;10.660;2022-07-29T07:36:56;2.90;;;1.42;;
8982;SDS011;20979;59.850;10.660;2022-07-29T07:39:27;2.40;;;1.35;;
8982;SDS011;20979;59.850;10.660;2022-07-29T07:41:55;1.85;;;1.17;;
8982;SDS011;20979;59.850;10.660;2022-07-29T07:54:02;2.42;;;1.42;;
8982;SDS011;20979;59.850;10.660;2022-07-29T07:56:45;3.10;;;1.40;;
8982;SDS011;20979;59.850;10.660;2022-07-29T07:59:14;2.58;;;1.40;;
8982;SDS011;20979;59.850;10.660;2022-07-29T08:01:41;3.13;;;1.63;;
8982;SDS011;20979;59.850;10.660;2022-07-29T08:04:09;2.33;;;1.38;;
8982;SDS011;20979;59.850;10.660;2022-07-29T08:06:50;5.03;;;2.25;;
8982;SDS011;20979;59.850;10.660;2022-07-29T08:09:19;3.08;;;1.63;;
8982;SDS011;20979;59.850;10.660;2022-07-29T08:11:52;3.45;;;1.50;;
8982;SDS011;20979;59.850;10.660;2022-07-29T08:14:20;2.78;;;1.60;;
8982;SDS011;20979;59.850;10.660;2022-07-29T08:20:00;2.83;;;1.33;;
8982;SDS011;20979;59.850;10.660;2022-07-29T08:22:44;4.80;;;1.77;;
8982;SDS011;20979;59.850;10.660;2022-07-29T08:31:17;3.10;;;1.65;;
8982;SDS011;20979;59.850;10.660;2022-07-29T08:33:45;4.88;;;1.40;;
8982;SDS011;20979;59.850;10.660;2022-07-29T08:36:12;2.25;;;1.60;;
8982;SDS011;20979;59.850;10.660;2022-07-29T08:38:40;2.42;;;1.23;;
8982;SDS011;20979;59.850;10.660;2022-07-29T08:41:07;3.72;;;1.17;;
8982;SDS011;20979;59.850;10.660;2022-07-29T08:46:59;1.50;;;1.20;;
8982;SDS011;20979;59.850;10.660;2022-07-29T08:55:34;1.88;;;1.25;;
8982;SDS011;20979;59.850;10.660;2022-07-29T08:58:02;2.17;;;1.30;;
8982;SDS011;20979;59.850;10.660;2022-07-29T09:00:29;2.30;;;1.27;;
8982;SDS011;20979;59.850;10.660;2022-07-29T09:12:18;2.58;;;1.30;;
8982;SDS011;20979;59.850;10.660;2022-07-29T09:14:47;2.58;;;1.35;;
8982;SDS011;20979;59.850;10.660;2022-07-29T09:20:08;1.88;;;0.95;;
8982;SDS011;20979;59.850;10.660;2022-07-29T09:22:35;2.53;;;1.05;;
8982;SDS011;20979;59.850;10.660;2022-07-29T09:53:33;0.98;;;0.80;;
8982;SDS011;20979;59.850;10.660;2022-07-29T09:56:02;1.63;;;0.88;;
8982;SDS011;20979;59.850;10.660;2022-07-29T09:58:29;1.80;;;0.82;;
8982;SDS011;20979;59.850;10.660;2022-07-29T10:01:14;0.80;;;0.80;;
8982;SDS011;20979;59.850;10.660;2022-07-29T10:22:21;1.40;;;0.80;;
8982;SDS011;20979;59.850;10.660;2022-07-29T10:24:49;1.13;;;1.02;;
8982;SDS011;20979;59.850;10.660;2022-07-29T10:27:17;1.35;;;0.80;;
8982;SDS011;20979;59.850;10.660;2022-07-29T10:29:44;1.00;;;0.77;;
8982;SDS011;20979;59.850;10.660;2022-07-29T10:44:16;1.38;;;1.00;;
8982;SDS011;20979;59.850;10.660;2022-07-29T10:46:43;0.98;;;0.73;;
8982;SDS011;20979;59.850;10.660;2022-07-29T11:05:01;1.73;;;0.85;;
8982;SDS011;20979;59.850;10.660;2022-07-29T11:07:29;0.68;;;0.60;;
8982;SDS011;20979;59.850;10.660;2022-07-29T11:19:31;1.70;;;0.75;;
8982;SDS011;20979;59.850;10.660;2022-07-29T11:34:26;0.75;;;0.55;;
8982;SDS011;20979;59.850;10.660;2022-07-29T11:37:18;0.93;;;0.70;;
8982;SDS011;20979;59.850;10.660;2022-07-29T11:40:07;1.58;;;0.82;;
8982;SDS011;20979;59.850;10.660;2022-07-29T11:42:40;1.83;;;0.70;;
8982;SDS011;20979;59.850;10.660;2022-07-29T11:45:44;0.70;;;0.70;;
8982;SDS011;20979;59.850;10.660;2022-07-29T11:54:33;0.90;;;0.63;;
8982;SDS011;20979;59.850;10.660;2022-07-29T12:03:07;0.57;;;0.57;;
8982;SDS011;20979;59.850;10.660;2022-07-29T12:12:04;0.60;;;0.60;;
8982;SDS011;20979;59.850;10.660;2022-07-29T12:14:32;0.60;;;0.60;;
8982;SDS011;20979;59.850;10.660;2022-07-29T12:17:00;0.82;;;0.50;;
8982;SDS011;20979;59.850;10.660;2022-07-29T12:22:30;0.50;;;0.50;;
8982;SDS011;20979;59.850;10.660;2022-07-29T12:25:00;0.77;;;0.77;;
8982;SDS011;20979;59.850;10.660;2022-07-29T12:33:33;0.95;;;0.52;;
8982;SDS011;20979;59.850;10.660;2022-07-29T12:36:01;0.70;;;0.52;;
8982;SDS011;20979;59.850;10.660;2022-07-29T12:38:42;0.88;;;0.50;;
8982;SDS011;20979;59.850;10.660;2022-07-29T12:41:27;1.10;;;0.60;;
8982;SDS011;20979;59.850;10.660;2022-07-29T12:53:27;0.68;;;0.50;;
8982;SDS011;20979;59.850;10.660;2022-07-29T12:59:36;0.80;;;0.68;;
8982;SDS011;20979;59.850;10.660;2022-07-29T13:15:25;0.90;;;0.55;;
8982;SDS011;20979;59.850;10.660;2022-07-29T13:24:20;0.77;;;0.50;;
8982;SDS011;20979;59.850;10.660;2022-07-29T13:26:57;1.50;;;0.60;;
8982;SDS011;20979;59.850;10.660;2022-07-29T13:29:34;17.73;;;2.88;;
8982;SDS011;20979;59.850;10.660;2022-07-29T13:56:21;0.90;;;0.90;;
8982;SDS011;20979;59.850;10.660;2022-07-29T14:04:47;0.70;;;0.70;;
8982;SDS011;20979;59.850;10.660;2022-07-29T14:07:14;1.17;;;0.65;;
8982;SDS011;20979;59.850;10.660;2022-07-29T14:09:42;0.80;;;0.80;;
8982;SDS011;20979;59.850;10.660;2022-07-29T14:12:25;1.45;;;0.90;;
8982;SDS011;20979;59.850;10.660;2022-07-29T14:14:58;4.20;;;0.85;;
8982;SDS011;20979;59.850;10.660;2022-07-29T14:17:26;1.48;;;0.70;;
8982;SDS011;20979;59.850;10.660;2022-07-29T14:19:53;1.10;;;0.80;;
8982;SDS011;20979;59.850;10.660;2022-07-29T14:34:38;1.35;;;0.60;;
8982;SDS011;20979;59.850;10.660;2022-07-29T14:37:06;0.80;;;0.70;;
8982;SDS011;20979;59.850;10.660;2022-07-29T14:39:44;0.40;;;0.40;;
8982;SDS011;20979;59.850;10.660;2022-07-29T14:42:28;0.88;;;0.70;;
8982;SDS011;20979;59.850;10.660;2022-07-29T14:45:13;1.60;;;0.90;;
8982;SDS011;20979;59.850;10.660;2022-07-29T14:47:41;0.98;;;0.63;;
8982;SDS011;20979;59.850;10.660;2022-07-29T14:52:53;0.80;;;0.80;;
8982;SDS011;20979;59.850;10.660;2022-07-29T14:55:21;1.25;;;0.75;;
8982;SDS011;20979;59.850;10.660;2022-07-29T14:57:48;0.95;;;0.80;;
8982;SDS011;20979;59.850;10.660;2022-07-29T15:40:11;0.90;;;0.88;;
8982;SDS011;20979;59.850;10.660;2022-07-29T15:46:08;2.95;;;0.70;;
8982;SDS011;20979;59.850;10.660;2022-07-29T15:48:53;1.10;;;0.85;;
8982;SDS011;20979;59.850;10.660;2022-07-29T15:57:45;0.60;;;0.60;;
8982;SDS011;20979;59.850;10.660;2022-07-29T16:00:48;0.75;;;0.65;;
8982;SDS011;20979;59.850;10.660;2022-07-29T16:03:16;1.60;;;0.93;;
8982;SDS011;20979;59.850;10.660;2022-07-29T16:08:56;0.75;;;0.75;;
8982;SDS011;20979;59.850;10.660;2022-07-29T16:14:47;0.70;;;0.70;;
8982;SDS011;20979;59.850;10.660;2022-07-29T16:20:46;4.10;;;1.08;;
8982;SDS011;20979;59.850;10.660;2022-07-29T16:29:37;1.25;;;0.90;;
8982;SDS011;20979;59.850;10.660;2022-07-29T16:35:12;1.45;;;1.10;;
8982;SDS011;20979;59.850;10.660;2022-07-29T16:47:09;1.58;;;1.00;;
8982;SDS011;20979;59.850;10.660;2022-07-29T16:53:04;1.05;;;0.95;;
8982;SDS011;20979;59.850;10.660;2022-07-29T16:55:32;0.70;;;0.70;;
8982;SDS011;20979;59.850;10.660;2022-07-29T16:58:00;0.75;;;0.75;;
8982;SDS011;20979;59.850;10.660;2022-07-29T17:06:51;1.10;;;0.60;;
8982;SDS011;20979;59.850;10.660;2022-07-29T17:18:55;1.00;;;0.65;;
8982;SDS011;20979;59.850;10.660;2022-07-29T17:24:52;0.65;;;0.50;;
8982;SDS011;20979;59.850;10.660;2022-07-29T17:30:48;1.67;;;0.52;;
8982;SDS011;20979;59.850;10.660;2022-07-29T17:33:44;0.73;;;0.73;;
8982;SDS011;20979;59.850;10.660;2022-07-29T17:36:16;0.50;;;0.50;;
8982;SDS011;20979;59.850;10.660;2022-07-29T17:39:04;1.15;;;0.50;;
8982;SDS011;20979;59.850;10.660;2022-07-29T17:41:31;1.20;;;0.50;;
8982;SDS011;20979;59.850;10.660;2022-07-29T17:44:19;0.85;;;0.45;;
8982;SDS011;20979;59.850;10.660;2022-07-29T17:46:47;0.50;;;0.50;;
8982;SDS011;20979;59.850;10.660;2022-07-29T17:49:14;0.68;;;0.60;;
8982;SDS011;20979;59.850;10.660;2022-07-29T17:52:00;0.40;;;0.40;;
8982;SDS011;20979;59.850;10.660;2022-07-29T17:54:30;0.75;;;0.50;;
8982;SDS011;20979;59.850;10.660;2022-07-29T17:56:58;1.08;;;0.50;;
8982;SDS011;20979;59.850;10.660;2022-07-29T17:59:34;0.65;;;0.65;;
8982;SDS011;20979;59.850;10.660;2022-07-29T18:03:22;0.65;;;0.65;;
8982;SDS011;20979;59.850;10.660;2022-07-29T18:11:12;0.40;;;0.40;;
8982;SDS011;20979;59.850;10.660;2022-07-29T18:13:40;0.38;;;0.38;;
8982;SDS011;20979;59.850;10.660;2022-07-29T18:18:45;0.30;;;0.30;;
8982;SDS011;20979;59.850;10.660;2022-07-29T18:21:15;0.43;;;0.32;;
8982;SDS011;20979;59.850;10.660;2022-07-29T18:23:49;0.57;;;0.50;;
8982;SDS011;20979;59.850;10.660;2022-07-29T18:26:18;0.47;;;0.47;;
8982;SDS011;20979;59.850;10.660;2022-07-29T18:34:58;0.85;;;0.40;;
8982;SDS011;20979;59.850;10.660;2022-07-29T18:37:27;0.40;;;0.40;;
8982;SDS011;20979;59.850;10.660;2022-07-29T18:39:54;0.40;;;0.40;;
8982;SDS011;20979;59.850;10.660;2022-07-29T18:45:41;0.80;;;0.60;;
8982;SDS011;20979;59.850;10.660;2022-07-29T18:48:08;0.45;;;0.45;;
8982;SDS011;20979;59.850;10.660;2022-07-29T18:50:39;0.68;;;0.50;;
8982;SDS011;20979;59.850;10.660;2022-07-29T18:53:06;1.10;;;0.40;;
8982;SDS011;20979;59.850;10.660;2022-07-29T18:55:34;0.35;;;0.35;;
8982;SDS011;20979;59.850;10.660;2022-07-29T19:00:58;0.77;;;0.50;;
8982;SDS011;20979;59.850;10.660;2022-07-29T19:03:59;1.67;;;0.40;;
8982;SDS011;20979;59.850;10.660;2022-07-29T19:09:27;0.85;;;0.47;;
8982;SDS011;20979;59.850;10.660;2022-07-29T19:11:54;0.30;;;0.30;;
8982;SDS011;20979;59.850;10.660;2022-07-29T19:14:22;0.60;;;0.40;;
8982;SDS011;20979;59.850;10.660;2022-07-29T19:16:51;0.60;;;0.60;;
8982;SDS011;20979;59.850;10.660;2022-07-29T19:19:51;0.40;;;0.40;;
8982;SDS011;20979;59.850;10.660;2022-07-29T19:22:38;0.73;;;0.60;;
8982;SDS011;20979;59.850;10.660;2022-07-29T19:25:20;1.00;;;0.70;;
8982;SDS011;20979;59.850;10.660;2022-07-29T19:27:48;0.57;;;0.40;;
8982;SDS011;20979;59.850;10.660;2022-07-29T19:30:29;0.38;;;0.30;;
8982;SDS011;20979;59.850;10.660;2022-07-29T19:36:19;0.82;;;0.70;;
8982;SDS011;20979;59.850;10.660;2022-07-29T19:38:51;1.05;;;0.80;;
8982;SDS011;20979;59.850;10.660;2022-07-29T19:51:00;1.38;;;0.65;;
8982;SDS011;20979;59.850;10.660;2022-07-29T19:56:32;0.80;;;0.70;;
8982;SDS011;20979;59.850;10.660;2022-07-29T19:58:59;0.73;;;0.73;;
8982;SDS011;20979;59.850;10.660;2022-07-29T20:01:27;2.25;;;0.90;;
8982;SDS011;20979;59.850;10.660;2022-07-29T20:03:56;0.88;;;0.80;;
8982;SDS011;20979;59.850;10.660;2022-07-29T20:06:23;0.98;;;0.63;;
8982;SDS011;20979;59.850;10.660;2022-07-29T20:08:51;1.67;;;0.70;;
8982;SDS011;20979;59.850;10.660;2022-07-29T20:11:34;1.77;;;1.08;;
8982;SDS011;20979;59.850;10.660;2022-07-29T20:14:03;0.73;;;0.73;;
8982;SDS011;20979;59.850;10.660;2022-07-29T20:16:31;0.80;;;0.80;;
8982;SDS011;20979;59.850;10.660;2022-07-29T20:21:43;1.33;;;1.10;;
8982;SDS011;20979;59.850;10.660;2022-07-29T20:24:11;1.17;;;1.05;;
8982;SDS011;20979;59.850;10.660;2022-07-29T20:29:56;1.48;;;1.00;;
8982;SDS011;20979;59.850;10.660;2022-07-29T20:32:39;1.38;;;1.10;;
8982;SDS011;20979;59.850;10.660;2022-07-29T20:35:25;1.58;;;0.90;;
8982;SDS011;20979;59.850;10.660;2022-07-29T20:44:11;1.58;;;1.05;;
8982;SDS011;20979;59.850;10.660;2022-07-29T20:46:46;2.60;;;0.93;;
8982;SDS011;20979;59.850;10.660;2022-07-29T20:55:14;1.90;;;1.10;;
8982;SDS011;20979;59.850;10.660;2022-07-29T21:00:35;2.33;;;1.20;;
8982;SDS011;20979;59.850;10.660;2022-07-29T21:03:04;1.80;;;1.15;;
8982;SDS011;20979;59.850;10.660;2022-07-29T21:05:31;1.20;;;1.10;;
8982;SDS011;20979;59.850;10.660;2022-07-29T21:07:59;1.23;;;1.08;;
8982;SDS011;20979;59.850;10.660;2022-07-29T21:10:26;2.50;;;1.25;;
8982;SDS011;20979;59.850;10.660;2022-07-29T21:13:00;1.58;;;1.25;;
8982;SDS011;20979;59.850;10.660;2022-07-29T21:21:58;1.67;;;1.30;;
8982;SDS011;20979;59.850;10.660;2022-07-29T21:24:57;1.90;;;1.20;;
8982;SDS011;20979;59.850;10.660;2022-07-29T21:30:45;1.50;;;1.40;;
8982;SDS011;20979;59.850;10.660;2022-07-29T21:36:21;1.20;;;1.10;;
8982;SDS011;20979;59.850;10.660;2022-07-29T21:52:10;1.67;;;1.30;;
8982;SDS011;20979;59.850;10.660;2022-07-29T21:57:23;2.50;;;1.40;;
8982;SDS011;20979;59.850;10.660;2022-07-29T21:59:51;1.73;;;1.20;;
8982;SDS011;20979;59.850;10.660;2022-07-29T22:02:19;1.20;;;1.10;;
8982;SDS011;20979;59.850;10.660;2022-07-29T22:04:52;1.75;;;1.13;;
8982;SDS011;20979;59.850;10.660;2022-07-29T22:07:20;2.22;;;1.40;;
8982;SDS011;20979;59.850;10.660;2022-07-29T22:13:05;2.00;;;1.60;;
8982;SDS011;20979;59.850;10.660;2022-07-29T22:22:02;2.63;;;1.50;;
8982;SDS011;20979;59.850;10.660;2022-07-29T22:33:38;1.50;;;1.40;;
8982;SDS011;20979;59.850;10.660;2022-07-29T22:51:28;3.30;;;1.63;;
8982;SDS011;20979;59.850;10.660;2022-07-29T23:00:28;2.27;;;1.60;;
8982;SDS011;20979;59.850;10.660;2022-07-29T23:02:56;1.37;;;1.20;;
8982;SDS011;20979;59.850;10.660;2022-07-29T23:05:23;2.10;;;1.60;;
8982;SDS011;20979;59.850;10.660;2022-07-29T23:07:59;2.90;;;1.53;;
8982;SDS011;20979;59.850;10.660;2022-07-29T23:10:41;2.83;;;1.50;;
8982;SDS011;20979;59.850;10.660;2022-07-29T23:13:08;2.77;;;1.57;;
8982;SDS011;20979;59.850;10.660;2022-07-29T23:15:36;3.87;;;1.50;;
8982;SDS011;20979;59.850;10.660;2022-07-29T23:18:04;1.80;;;1.50;;
8982;SDS011;20979;59.850;10.660;2022-07-29T23:20:31;2.30;;;1.63;;
8982;SDS011;20979;59.850;10.660;2022-07-29T23:23:00;1.30;;;1.20;;
8982;SDS011;20979;59.850;10.660;2022-07-29T23:25:27;1.87;;;1.50;;
8982;SDS011;20979;59.850;10.660;2022-07-29T23:27:55;2.00;;;1.47;;
8982;SDS011;20979;59.850;10.660;2022-07-29T23:30:23;1.90;;;1.47;;
8982;SDS011;20979;59.850;10.660;2022-07-29T23:32:50;2.17;;;1.50;;
8982;SDS011;20979;59.850;10.660;2022-07-29T23:35:31;2.60;;;1.47;;
8982;SDS011;20979;59.850;10.660;2022-07-29T23:38:04;3.27;;;1.63;;
8982;SDS011;20979;59.850;10.660;2022-07-29T23:40:32;1.83;;;1.50;;
8982;SDS011;20979;59.850;10.660;2022-07-29T23:43:09;3.27;;;1.60;;
8982;SDS011;20979;59.850;10.660;2022-07-29T23:45:45;1.90;;;1.70;;
8982;SDS011;20979;59.850;10.660;2022-07-29T23:50:57;3.37;;;1.53;;
8982;SDS011;20979;59.850;10.660;2022-07-29T23:53:42;3.93;;;1.90;;
8982;SDS011;20979;59.850;10.660;2022-07-29T23:56:11;3.10;;;1.53;;
8982;SDS011;20979;59.850;10.660;2022-07-29T23:58:53;3.07;;;1.90;;
